Time;durP1;ratioP1;P1;durP2;ratioP2;P2;SDS_P1;SDS_P2;PMS_P1;PMS_P2;Temp;Humidity;BMP_temperature;BMP_pressure;BME280_temperature;BME280_humidity;BME280_pressure;Samples;Min_cycle;Max_cycle;Signal;HPM_P1;HPM_P2
2023/05/11 00:01:18;;;;;;;;;;;12.10;67.50;;;;;;5035056;28;87408;-40
2023/05/11 00:03:43;;;;;;;;;;;12.00;67.20;;;;;;5033666;28;88580;-41
2023/05/11 00:06:09;;;;;;;;;;;12.10;67.40;;;;;;5032571;28;87570;-41
2023/05/11 00:08:35;;;;;;;;;;;12.10;67.30;;;;;;5034401;27;87165;-40
2023/05/11 00:11:00;;;;;;;;;;;12.00;68.00;;;;;;5033901;28;89261;-40
2023/05/11 00:13:26;;;;;;;;;;;12.10;67.30;;;;;;5035400;28;87489;-41
2023/05/11 00:15:52;;;;;;;;;;;12.00;67.30;;;;;;5033134;28;87935;-40
2023/05/11 00:18:17;;;;;;;;;;;12.00;67.40;;;;;;5034975;28;87081;-41
2023/05/11 00:20:43;;;;;;;;;;;12.00;67.40;;;;;;5033033;28;88978;-41
2023/05/11 00:23:08;;;;;;;;;;;12.00;67.30;;;;;;5032420;28;87971;-40
2023/05/11 00:25:34;;;;;;;;;;;12.00;67.50;;;;;;5034852;28;87057;-41
2023/05/11 00:27:59;;;;;;;;;;;12.00;67.30;;;;;;5034263;28;87358;-40
2023/05/11 00:30:25;;;;;;;;;;;12.10;67.40;;;;;;5032012;28;88145;-40
2023/05/11 00:32:51;;;;;;;;;;;12.00;67.40;;;;;;5037328;28;87250;-41
2023/05/11 00:35:17;;;;;;;;;;;12.00;67.40;;;;;;5033341;28;88080;-41
2023/05/11 00:37:42;;;;;;;;;;;12.00;67.40;;;;;;5032107;28;87190;-41
2023/05/11 00:40:08;;;;;;;;;;;12.00;67.40;;;;;;5033208;28;87400;-41
2023/05/11 00:42:33;;;;;;;;;;;12.00;67.30;;;;;;5033986;28;88029;-41
2023/05/11 00:44:59;;;;;;;;;;;12.00;67.40;;;;;;5031622;28;87119;-41
2023/05/11 00:47:24;;;;;;;;;;;12.00;67.30;;;;;;5032603;27;87339;-41
2023/05/11 00:49:52;;;;;;;;;;;12.00;67.30;;;;;;5034089;28;88173;-40
2023/05/11 00:52:18;;;;;;;;;;;12.00;67.50;;;;;;5033873;28;86343;-41
2023/05/11 00:54:44;;;;;;;;;;;12.00;67.40;;;;;;5034333;28;87038;-41
2023/05/11 00:57:10;;;;;;;;;;;12.00;67.40;;;;;;5033179;28;87121;-42
2023/05/11 00:59:35;;;;;;;;;;;12.00;67.20;;;;;;5033251;28;89025;-41
2023/05/11 01:02:02;;;;;;;;;;;12.00;67.20;;;;;;5031571;28;88568;-40
2023/05/11 01:04:27;;;;;;;;;;;12.00;67.40;;;;;;5032057;28;87499;-41
2023/05/11 01:07:11;;;;;;;;;;;11.90;67.40;;;;;;5034359;28;87302;-41
2023/05/11 01:09:45;;;;;;;;;;;12.00;67.40;;;;;;5033476;28;88189;-41
2023/05/11 01:12:32;;;;;;;;;;;12.00;67.40;;;;;;5033702;28;87123;-41
2023/05/11 01:15:05;;;;;;;;;;;12.00;67.40;;;;;;5032917;28;87477;-45
2023/05/11 01:17:41;;;;;;;;;;;12.00;67.60;;;;;;5035693;28;87258;-40
2023/05/11 01:20:11;;;;;;;;;;;12.00;67.50;;;;;;5029192;28;86914;-41
2023/05/11 01:22:46;;;;;;;;;;;12.00;67.50;;;;;;5030615;28;88044;-41
2023/05/11 01:25:27;;;;;;;;;;;12.00;67.30;;;;;;5031640;28;88007;-41
2023/05/11 01:28:02;;;;;;;;;;;11.90;67.30;;;;;;5030435;28;89869;-41
2023/05/11 01:30:51;;;;;;;;;;;11.90;67.50;;;;;;5028584;28;88013;-41
2023/05/11 01:33:20;;;;;;;;;;;11.90;67.50;;;;;;5026601;28;88563;-41
2023/05/11 01:35:49;;;;;;;;;;;11.90;67.50;;;;;;5031183;28;88909;-41
2023/05/11 01:38:15;;;;;;;;;;;11.90;67.50;;;;;;5031393;28;88467;-40
2023/05/11 01:40:43;;;;;;;;;;;11.90;67.40;;;;;;5036396;28;87170;-41
2023/05/11 01:43:11;;;;;;;;;;;11.90;67.40;;;;;;5032353;28;87501;-41
2023/05/11 01:45:39;;;;;;;;;;;11.90;67.40;;;;;;5031217;28;87050;-41
2023/05/11 01:48:08;;;;;;;;;;;11.90;67.50;;;;;;5032342;28;87566;-40
2023/05/11 01:50:35;;;;;;;;;;;11.90;67.50;;;;;;5032269;28;89065;-41
2023/05/11 01:53:02;;;;;;;;;;;11.90;67.60;;;;;;5031796;28;87098;-41
2023/05/11 01:55:29;;;;;;;;;;;11.90;67.40;;;;;;5030446;28;89031;-41
2023/05/11 01:57:56;;;;;;;;;;;11.90;67.50;;;;;;5032392;28;88082;-41
2023/05/11 02:00:22;;;;;;;;;;;11.90;67.50;;;;;;5033336;28;87099;-41
2023/05/11 02:02:48;;;;;;;;;;;11.90;67.40;;;;;;5033550;27;87884;-41
2023/05/11 02:05:15;;;;;;;;;;;11.90;67.50;;;;;;5031753;28;87132;-40
2023/05/11 02:07:41;;;;;;;;;;;11.90;67.40;;;;;;5033551;28;87773;-41
2023/05/11 02:10:08;;;;;;;;;;;11.90;67.30;;;;;;5031209;28;87472;-41
2023/05/11 02:12:34;;;;;;;;;;;11.90;67.60;;;;;;5030870;28;87167;-41
2023/05/11 02:15:00;;;;;;;;;;;11.80;67.40;;;;;;5032551;28;88020;-41
2023/05/11 02:17:26;;;;;;;;;;;11.80;67.70;;;;;;5030866;28;90617;-40
2023/05/11 02:19:53;;;;;;;;;;;11.80;67.60;;;;;;5030788;28;87122;-41
2023/05/11 02:22:19;;;;;;;;;;;11.80;67.70;;;;;;5034474;27;87450;-41
2023/05/11 02:24:45;;;;;;;;;;;11.80;67.50;;;;;;5033000;28;87004;-41
2023/05/11 02:27:11;;;;;;;;;;;11.80;67.40;;;;;;5031379;28;87370;-41
2023/05/11 02:29:37;;;;;;;;;;;11.80;67.20;;;;;;5030619;28;87830;-40
2023/05/11 02:32:05;;;;;;;;;;;11.90;67.50;;;;;;5033671;28;86584;-40
2023/05/11 02:34:54;;;;;;;;;;;11.80;67.40;;;;;;5032329;28;88146;-40
2023/05/11 02:37:23;;;;;;;;;;;11.90;67.60;;;;;;5031053;28;89631;-41
2023/05/11 02:39:51;;;;;;;;;;;11.80;67.60;;;;;;5030627;28;88073;-41
2023/05/11 02:42:18;;;;;;;;;;;11.80;67.50;;;;;;5030095;28;88402;-41
2023/05/11 02:44:49;;;;;;;;;;;11.80;67.50;;;;;;5034955;28;88133;-40
2023/05/11 02:47:16;;;;;;;;;;;11.80;67.40;;;;;;5032714;28;88525;-42
2023/05/11 02:49:43;;;;;;;;;;;11.80;67.50;;;;;;5030736;28;88023;-41
2023/05/11 02:52:09;;;;;;;;;;;11.80;67.40;;;;;;5030331;28;87091;-41
2023/05/11 02:54:36;;;;;;;;;;;11.80;67.50;;;;;;5026611;28;88003;-41
2023/05/11 02:57:02;;;;;;;;;;;11.80;67.50;;;;;;5031262;28;87369;-41
2023/05/11 02:59:29;;;;;;;;;;;11.80;67.50;;;;;;5032780;28;87342;-40
2023/05/11 03:01:54;;;;;;;;;;;11.80;67.60;;;;;;5031093;28;87464;-41
2023/05/11 03:04:20;;;;;;;;;;;11.80;67.60;;;;;;5027310;28;92695;-41
2023/05/11 03:06:45;;;;;;;;;;;11.80;67.60;;;;;;5035227;28;87217;-40
2023/05/11 03:09:11;;;;;;;;;;;11.80;67.50;;;;;;5034850;28;88127;-41
2023/05/11 03:11:37;;;;;;;;;;;11.80;67.60;;;;;;5033629;28;87522;-41
2023/05/11 03:14:02;;;;;;;;;;;11.80;67.60;;;;;;5034984;27;87357;-41
2023/05/11 03:16:28;;;;;;;;;;;11.80;67.40;;;;;;5035227;28;87994;-41
2023/05/11 03:18:54;;;;;;;;;;;11.80;67.50;;;;;;5033741;28;87086;-41
2023/05/11 03:21:21;;;;;;;;;;;11.80;67.60;;;;;;5033707;27;88932;-41
2023/05/11 03:23:48;;;;;;;;;;;11.80;67.60;;;;;;5035328;28;88143;-40
2023/05/11 03:26:15;;;;;;;;;;;11.80;67.60;;;;;;5034230;28;87160;-41
2023/05/11 03:28:42;;;;;;;;;;;11.80;67.60;;;;;;5035141;27;88487;-41
2023/05/11 03:31:08;;;;;;;;;;;11.80;67.50;;;;;;5034733;28;87135;-41
2023/05/11 03:33:34;;;;;;;;;;;11.80;67.50;;;;;;5035765;28;87849;-41
2023/05/11 03:35:59;;;;;;;;;;;11.70;67.50;;;;;;5028672;28;89223;-41
2023/05/11 03:38:26;;;;;;;;;;;11.80;67.50;;;;;;5033984;28;87126;-41
2023/05/11 03:40:53;;;;;;;;;;;11.80;67.50;;;;;;5034935;28;87503;-41
2023/05/11 03:43:19;;;;;;;;;;;11.70;67.60;;;;;;5033967;28;88030;-41
2023/05/11 03:45:46;;;;;;;;;;;11.80;67.60;;;;;;5033567;28;86364;-41
2023/05/11 03:48:14;;;;;;;;;;;11.70;67.60;;;;;;5034767;28;87062;-40
2023/05/11 03:50:40;;;;;;;;;;;11.70;67.50;;;;;;5037590;28;87955;-41
2023/05/11 03:53:06;;;;;;;;;;;11.70;67.60;;;;;;5031993;28;88078;-41
2023/05/11 03:55:31;;;;;;;;;;;11.70;67.60;;;;;;5033139;28;89605;-41
2023/05/11 03:57:57;;;;;;;;;;;11.80;67.50;;;;;;5034870;28;87683;-41
2023/05/11 04:00:23;;;;;;;;;;;11.70;67.70;;;;;;5033870;28;87055;-41
2023/05/11 04:02:48;;;;;;;;;;;11.70;67.60;;;;;;5032508;28;87928;-41
2023/05/11 04:05:14;;;;;;;;;;;11.70;67.60;;;;;;5028298;28;87233;-40
2023/05/11 04:07:40;;;;;;;;;;;11.70;67.70;;;;;;5033342;27;87550;-41
2023/05/11 04:10:06;;;;;;;;;;;11.70;67.60;;;;;;5035460;28;87377;-40
2023/05/11 04:12:31;;;;;;;;;;;11.70;67.50;;;;;;5036260;28;87139;-41
2023/05/11 04:14:57;;;;;;;;;;;11.70;67.60;;;;;;5031828;28;88635;-41
2023/05/11 04:17:22;;;;;;;;;;;11.60;67.80;;;;;;5033821;28;88250;-41
2023/05/11 04:19:48;;;;;;;;;;;11.70;67.70;;;;;;5032476;28;88123;-41
2023/05/11 04:22:13;;;;;;;;;;;11.70;67.60;;;;;;5031641;28;88017;-41
2023/05/11 04:24:39;;;;;;;;;;;11.70;67.70;;;;;;5034471;28;86983;-40
2023/05/11 04:27:04;;;;;;;;;;;11.60;67.50;;;;;;5034540;28;87015;-40
2023/05/11 04:29:30;;;;;;;;;;;11.60;67.50;;;;;;5031966;28;87904;-41
2023/05/11 04:31:56;;;;;;;;;;;11.70;67.50;;;;;;5035886;28;87165;-40
2023/05/11 04:34:21;;;;;;;;;;;11.60;67.70;;;;;;5034376;28;87151;-41
2023/05/11 04:36:47;;;;;;;;;;;11.60;67.60;;;;;;5031993;28;87493;-41
2023/05/11 04:39:13;;;;;;;;;;;11.60;67.50;;;;;;5032741;27;87456;-41
2023/05/11 04:41:38;;;;;;;;;;;11.60;67.50;;;;;;5033056;28;88950;-41
2023/05/11 04:44:04;;;;;;;;;;;11.60;67.50;;;;;;5032895;28;87084;-41
2023/05/11 04:46:29;;;;;;;;;;;11.70;67.50;;;;;;5031906;27;88966;-41
2023/05/11 04:48:55;;;;;;;;;;;11.60;67.60;;;;;;5033516;28;87261;-41
2023/05/11 04:51:20;;;;;;;;;;;11.60;67.50;;;;;;5033234;28;87134;-41
2023/05/11 04:53:46;;;;;;;;;;;11.60;67.60;;;;;;5034213;28;87953;-41
2023/05/11 04:56:11;;;;;;;;;;;11.60;67.50;;;;;;5033012;28;87451;-41
2023/05/11 04:58:37;;;;;;;;;;;11.60;67.50;;;;;;5033816;28;88969;-40
2023/05/11 05:01:02;;;;;;;;;;;11.60;67.50;;;;;;5031105;28;87855;-41
2023/05/11 05:03:28;;;;;;;;;;;11.60;67.50;;;;;;5032404;28;87185;-41
2023/05/11 05:05:54;;;;;;;;;;;11.60;67.80;;;;;;5032894;28;88457;-41
2023/05/11 05:08:20;;;;;;;;;;;11.60;67.40;;;;;;5031519;28;87569;-41
2023/05/11 05:10:46;;;;;;;;;;;11.60;67.50;;;;;;5031691;28;87161;-41
2023/05/11 05:13:11;;;;;;;;;;;11.60;67.50;;;;;;5033923;28;87404;-40
2023/05/11 05:15:37;;;;;;;;;;;11.60;67.40;;;;;;5035207;28;89017;-41
2023/05/11 05:18:02;;;;;;;;;;;11.60;67.90;;;;;;5031362;28;87735;-40
2023/05/11 05:20:28;;;;;;;;;;;11.60;67.40;;;;;;5032264;28;88083;-41
2023/05/11 05:22:54;;;;;;;;;;;11.60;67.40;;;;;;5034114;28;86489;-42
2023/05/11 05:25:21;;;;;;;;;;;11.60;67.50;;;;;;5031340;27;88520;-41
2023/05/11 05:27:46;;;;;;;;;;;11.60;67.50;;;;;;5031482;28;88036;-41
2023/05/11 05:30:12;;;;;;;;;;;11.60;67.40;;;;;;5032096;27;88135;-42
2023/05/11 05:32:37;;;;;;;;;;;11.60;67.20;;;;;;5031969;28;88269;-41
2023/05/11 05:35:03;;;;;;;;;;;11.60;67.40;;;;;;5030800;28;88540;-41
2023/05/11 05:37:28;;;;;;;;;;;11.60;67.50;;;;;;5036000;28;86989;-41
2023/05/11 05:39:54;;;;;;;;;;;11.60;67.40;;;;;;5031819;28;88853;-41
2023/05/11 05:42:21;;;;;;;;;;;11.50;67.50;;;;;;5030612;28;87919;-41
2023/05/11 05:44:46;;;;;;;;;;;11.50;67.40;;;;;;5032582;28;88909;-42
2023/05/11 05:47:12;;;;;;;;;;;11.50;67.40;;;;;;5032898;28;88683;-41
2023/05/11 05:49:37;;;;;;;;;;;11.50;67.40;;;;;;5030531;28;87196;-41
2023/05/11 05:52:03;;;;;;;;;;;11.50;67.40;;;;;;5031902;28;87338;-41
2023/05/11 05:54:28;;;;;;;;;;;11.50;67.50;;;;;;5032019;28;90626;-42
2023/05/11 05:56:54;;;;;;;;;;;11.50;67.40;;;;;;5031652;28;87038;-40
2023/05/11 05:59:22;;;;;;;;;;;11.50;67.40;;;;;;5033733;28;87423;-41
2023/05/11 06:01:48;;;;;;;;;;;11.50;67.40;;;;;;5033120;28;87190;-41
2023/05/11 06:04:13;;;;;;;;;;;11.50;67.60;;;;;;5031853;28;87341;-41
2023/05/11 06:06:39;;;;;;;;;;;11.50;67.50;;;;;;5030421;28;88089;-41
2023/05/11 06:09:05;;;;;;;;;;;11.50;67.60;;;;;;5032513;28;87117;-42
2023/05/11 06:11:30;;;;;;;;;;;11.50;67.60;;;;;;5033164;28;88839;-40
2023/05/11 06:13:56;;;;;;;;;;;11.50;67.70;;;;;;5030551;28;87673;-41
2023/05/11 06:16:21;;;;;;;;;;;11.50;67.60;;;;;;5032177;28;87938;-41
2023/05/11 06:18:47;;;;;;;;;;;11.50;67.70;;;;;;5032423;28;87988;-41
2023/05/11 06:21:12;;;;;;;;;;;11.50;67.60;;;;;;5033462;28;87968;-41
2023/05/11 06:23:38;;;;;;;;;;;11.50;67.70;;;;;;5031019;28;87428;-41
2023/05/11 06:26:03;;;;;;;;;;;11.50;68.20;;;;;;5032943;28;88027;-41
2023/05/11 06:28:29;;;;;;;;;;;11.50;67.60;;;;;;5031626;28;87027;-41
2023/05/11 06:30:57;;;;;;;;;;;11.50;67.60;;;;;;5030583;27;87670;-41
2023/05/11 06:33:22;;;;;;;;;;;11.50;67.60;;;;;;5032003;28;89436;-41
2023/05/11 06:35:48;;;;;;;;;;;11.50;67.60;;;;;;5033249;28;86454;-41
2023/05/11 06:38:13;;;;;;;;;;;11.50;67.70;;;;;;5030005;27;87898;-41
2023/05/11 06:40:39;;;;;;;;;;;11.50;67.60;;;;;;5033896;28;87183;-41
2023/05/11 06:43:05;;;;;;;;;;;11.50;67.70;;;;;;5034783;28;88043;-41
2023/05/11 06:45:30;;;;;;;;;;;11.50;67.70;;;;;;5034001;28;89298;-41
2023/05/11 06:47:56;;;;;;;;;;;11.50;67.60;;;;;;5032499;28;87493;-41
2023/05/11 06:50:21;;;;;;;;;;;11.50;67.60;;;;;;5035735;28;87351;-41
2023/05/11 06:52:47;;;;;;;;;;;11.50;67.70;;;;;;5033808;28;89087;-41
2023/05/11 06:55:13;;;;;;;;;;;11.50;67.60;;;;;;5033375;28;87101;-41
2023/05/11 06:57:38;;;;;;;;;;;11.50;67.70;;;;;;5035620;28;88963;-41
2023/05/11 07:00:05;;;;;;;;;;;11.50;67.70;;;;;;5035391;28;86372;-41
2023/05/11 07:02:30;;;;;;;;;;;11.50;67.80;;;;;;5036463;28;87554;-41
2023/05/11 07:04:57;;;;;;;;;;;11.50;67.70;;;;;;5034015;28;87547;-41
2023/05/11 07:07:22;;;;;;;;;;;11.50;67.80;;;;;;5034673;28;88013;-41
2023/05/11 07:09:48;;;;;;;;;;;11.50;67.90;;;;;;5033141;28;87558;-40
2023/05/11 07:12:13;;;;;;;;;;;11.50;67.70;;;;;;5033460;28;88083;-41
2023/05/11 07:14:39;;;;;;;;;;;11.50;67.90;;;;;;5035323;28;87383;-41
2023/05/11 07:17:05;;;;;;;;;;;11.50;67.80;;;;;;5034175;28;87074;-41
2023/05/11 07:19:30;;;;;;;;;;;11.50;67.70;;;;;;5033026;28;87947;-41
2023/05/11 07:21:56;;;;;;;;;;;11.50;67.80;;;;;;5029439;28;87134;-41
2023/05/11 07:24:21;;;;;;;;;;;11.50;67.70;;;;;;5036425;28;86545;-42
2023/05/11 07:26:48;;;;;;;;;;;11.50;67.80;;;;;;5035273;28;87135;-41
2023/05/11 07:29:14;;;;;;;;;;;11.50;67.90;;;;;;5032955;28;87856;-40
2023/05/11 07:31:40;;;;;;;;;;;11.50;67.90;;;;;;5030867;28;90389;-41
2023/05/11 07:34:05;;;;;;;;;;;11.50;67.90;;;;;;5034690;28;87524;-41
2023/05/11 07:36:31;;;;;;;;;;;11.50;68.00;;;;;;5033635;28;87205;-41
2023/05/11 07:38:58;;;;;;;;;;;11.50;68.00;;;;;;5032373;28;88116;-41
2023/05/11 07:41:25;;;;;;;;;;;11.50;68.10;;;;;;5033450;28;87104;-41
2023/05/11 07:43:51;;;;;;;;;;;11.50;68.00;;;;;;5035068;28;87430;-41
2023/05/11 07:46:17;;;;;;;;;;;11.50;67.90;;;;;;5035185;28;88145;-41
2023/05/11 07:48:42;;;;;;;;;;;11.50;67.90;;;;;;5033024;28;87564;-41
2023/05/11 07:51:08;;;;;;;;;;;11.50;67.90;;;;;;5033888;28;89280;-41
2023/05/11 07:53:33;;;;;;;;;;;11.50;68.00;;;;;;5033321;28;87512;-41
2023/05/11 07:55:59;;;;;;;;;;;11.50;67.90;;;;;;5031660;27;88282;-40
2023/05/11 07:58:25;;;;;;;;;;;11.50;68.20;;;;;;5033817;28;88385;-41
2023/05/11 08:00:50;;;;;;;;;;;11.50;68.10;;;;;;5033934;28;87069;-41
2023/05/11 08:03:16;;;;;;;;;;;11.50;68.20;;;;;;5031848;27;87340;-41
2023/05/11 08:05:41;;;;;;;;;;;11.50;68.10;;;;;;5032868;28;87391;-41
2023/05/11 08:08:07;;;;;;;;;;;11.50;68.10;;;;;;5037805;28;87058;-42
2023/05/11 08:10:33;;;;;;;;;;;11.50;68.10;;;;;;5031595;28;89336;-41
2023/05/11 08:12:59;;;;;;;;;;;11.50;68.20;;;;;;5033473;28;86342;-41
2023/05/11 08:15:24;;;;;;;;;;;11.50;68.20;;;;;;5034680;28;86998;-41
2023/05/11 08:17:50;;;;;;;;;;;11.50;68.10;;;;;;5032816;28;87769;-41
2023/05/11 08:20:16;;;;;;;;;;;11.50;68.20;;;;;;5030991;28;88612;-41
2023/05/11 08:22:41;;;;;;;;;;;11.50;68.40;;;;;;5028349;28;88840;-41
2023/05/11 08:25:07;;;;;;;;;;;11.50;68.30;;;;;;5032802;28;88408;-41
2023/05/11 08:27:32;;;;;;;;;;;11.50;68.20;;;;;;5034378;28;87485;-41
2023/05/11 08:29:58;;;;;;;;;;;11.50;68.50;;;;;;5034990;28;87632;-41
2023/05/11 08:32:24;;;;;;;;;;;11.50;68.40;;;;;;5031832;28;87069;-41
2023/05/11 08:34:49;;;;;;;;;;;11.50;68.20;;;;;;5033978;28;88817;-41
2023/05/11 08:37:15;;;;;;;;;;;11.50;68.40;;;;;;5033499;28;89075;-41
2023/05/11 08:39:40;;;;;;;;;;;11.50;68.20;;;;;;5031701;28;87074;-42
2023/05/11 08:42:07;;;;;;;;;;;11.50;68.40;;;;;;5033164;28;88955;-41
2023/05/11 08:44:34;;;;;;;;;;;11.50;68.30;;;;;;5032748;28;89093;-42
2023/05/11 08:46:59;;;;;;;;;;;11.50;68.40;;;;;;5027832;28;87109;-41
2023/05/11 08:49:25;;;;;;;;;;;11.50;68.30;;;;;;5035731;28;87544;-41
2023/05/11 08:51:50;;;;;;;;;;;11.50;68.30;;;;;;5033166;28;87075;-41
2023/05/11 08:54:16;;;;;;;;;;;11.50;68.50;;;;;;5031994;28;88747;-40
2023/05/11 08:56:42;;;;;;;;;;;11.50;68.30;;;;;;5031207;28;87919;-41
2023/05/11 08:59:08;;;;;;;;;;;11.50;68.70;;;;;;5033541;28;87710;-41
2023/05/11 09:01:34;;;;;;;;;;;11.50;68.30;;;;;;5033068;28;87681;-40
2023/05/11 09:04:00;;;;;;;;;;;11.50;68.20;;;;;;5030520;28;88017;-41
2023/05/11 09:06:26;;;;;;;;;;;11.50;68.10;;;;;;5032285;28;87141;-41
2023/05/11 09:08:52;;;;;;;;;;;11.50;68.20;;;;;;5032712;28;87969;-41
2023/05/11 09:11:17;;;;;;;;;;;11.50;68.20;;;;;;5033572;28;88473;-41
2023/05/11 09:13:43;;;;;;;;;;;11.50;68.30;;;;;;5031586;27;88031;-41
2023/05/11 09:16:08;;;;;;;;;;;11.50;68.30;;;;;;5033108;28;88120;-40
2023/05/11 09:18:34;;;;;;;;;;;11.50;68.40;;;;;;5031721;28;87516;-41
2023/05/11 09:21:00;;;;;;;;;;;11.50;68.40;;;;;;5031234;28;87350;-41
2023/05/11 09:23:26;;;;;;;;;;;11.50;68.40;;;;;;5033468;28;88307;-40
2023/05/11 09:25:52;;;;;;;;;;;11.50;68.50;;;;;;5032989;28;86422;-41
2023/05/11 09:28:24;;;;;;;;;;;11.60;68.40;;;;;;5031289;27;87033;-41
2023/05/11 09:30:50;;;;;;;;;;;11.50;68.50;;;;;;5031320;28;89450;-42
2023/05/11 09:33:22;;;;;;;;;;;11.50;68.20;;;;;;5035647;28;88059;-41
2023/05/11 09:35:48;;;;;;;;;;;11.50;68.40;;;;;;5031670;28;89545;-42
2023/05/11 09:38:15;;;;;;;;;;;11.50;68.40;;;;;;5031117;28;87138;-41
2023/05/11 09:40:49;;;;;;;;;;;11.60;68.40;;;;;;5032025;27;88943;-41
2023/05/11 09:43:21;;;;;;;;;;;11.50;68.50;;;;;;5033022;28;88091;-42
2023/05/11 09:45:48;;;;;;;;;;;11.60;68.60;;;;;;5032840;28;87083;-41
2023/05/11 09:48:20;;;;;;;;;;;11.60;68.40;;;;;;5026883;28;89049;-40
2023/05/11 09:50:49;;;;;;;;;;;11.60;68.40;;;;;;5030507;28;88841;-41
2023/05/11 09:53:16;;;;;;;;;;;11.60;68.40;;;;;;5031785;28;87125;-41
2023/05/11 09:55:51;;;;;;;;;;;11.70;68.50;;;;;;5035487;28;88896;-40
2023/05/11 09:58:17;;;;;;;;;;;11.60;68.30;;;;;;5031364;28;88065;-40
2023/05/11 10:00:52;;;;;;;;;;;11.60;68.30;;;;;;5030239;28;88360;-41
2023/05/11 10:03:18;;;;;;;;;;;11.70;68.30;;;;;;5030233;28;89396;-41
2023/05/11 10:05:59;;;;;;;;;;;11.60;68.20;;;;;;5032246;28;87156;-41
2023/05/11 10:08:34;;;;;;;;;;;11.60;68.40;;;;;;5032693;28;87482;-41
2023/05/11 10:11:03;;;;;;;;;;;11.60;68.60;;;;;;5031925;28;88030;-41
2023/05/11 10:13:29;;;;;;;;;;;11.70;68.50;;;;;;5030651;28;87112;-42
2023/05/11 10:15:56;;;;;;;;;;;11.70;68.60;;;;;;5030847;27;87212;-41
2023/05/11 10:18:22;;;;;;;;;;;11.70;68.30;;;;;;5032406;28;88117;-41
2023/05/11 10:20:48;;;;;;;;;;;11.70;68.50;;;;;;5034911;27;87431;-41
2023/05/11 10:23:14;;;;;;;;;;;11.70;68.40;;;;;;5035547;28;89597;-40
2023/05/11 10:25:40;;;;;;;;;;;11.80;68.20;;;;;;5034910;28;87079;-41
2023/05/11 10:28:05;;;;;;;;;;;11.80;68.20;;;;;;5033798;28;88925;-40
2023/05/11 10:30:32;;;;;;;;;;;11.80;68.10;;;;;;5030036;28;88112;-41
2023/05/11 10:32:59;;;;;;;;;;;11.80;68.10;;;;;;5034741;28;87118;-41
2023/05/11 10:35:25;;;;;;;;;;;11.80;68.00;;;;;;5036032;28;87347;-41
2023/05/11 10:37:51;;;;;;;;;;;11.80;68.00;;;;;;5034298;28;88214;-42
2023/05/11 10:40:16;;;;;;;;;;;11.80;67.90;;;;;;5036943;28;86294;-41
2023/05/11 10:42:45;;;;;;;;;;;11.90;68.00;;;;;;5035100;28;87848;-41
2023/05/11 10:45:14;;;;;;;;;;;11.80;68.00;;;;;;5035753;28;87361;-41
2023/05/11 10:47:58;;;;;;;;;;;11.90;68.20;;;;;;5029874;28;89363;-41
2023/05/11 10:50:33;;;;;;;;;;;11.90;68.10;;;;;;5030922;28;89834;-41
2023/05/11 10:53:18;;;;;;;;;;;11.90;68.10;;;;;;5033607;28;87135;-41
2023/05/11 10:55:59;;;;;;;;;;;11.90;67.90;;;;;;5029918;28;87584;-41
2023/05/11 10:58:47;;;;;;;;;;;11.90;68.00;;;;;;5032510;28;88021;-41
2023/05/11 11:01:33;;;;;;;;;;;11.80;68.30;;;;;;5030703;28;87517;-41
2023/05/11 11:04:01;;;;;;;;;;;11.80;68.10;;;;;;5031541;28;87259;-41
2023/05/11 11:06:27;;;;;;;;;;;11.90;68.30;;;;;;5034051;28;86446;-40
2023/05/11 11:08:56;;;;;;;;;;;11.90;68.20;;;;;;5032911;28;88369;-41
2023/05/11 11:11:28;;;;;;;;;;;11.90;68.10;;;;;;5034860;28;88108;-40
2023/05/11 11:13:57;;;;;;;;;;;11.80;68.30;;;;;;5034515;28;88048;-41
2023/05/11 11:16:24;;;;;;;;;;;11.90;68.50;;;;;;5032994;27;88431;-40
2023/05/11 11:18:50;;;;;;;;;;;11.90;68.20;;;;;;5033663;28;88566;-41
2023/05/11 11:21:36;;;;;;;;;;;11.90;68.20;;;;;;5035155;28;87084;-42
2023/05/11 11:24:02;;;;;;;;;;;11.90;68.20;;;;;;5037714;28;87336;-41
2023/05/11 11:26:46;;;;;;;;;;;11.80;68.70;;;;;;5034625;28;87109;-41
2023/05/11 11:29:12;;;;;;;;;;;11.80;68.70;;;;;;5031382;28;87416;-41
2023/05/11 11:31:38;;;;;;;;;;;11.90;68.30;;;;;;5032834;28;87536;-41
2023/05/11 11:34:22;;;;;;;;;;;12.00;68.40;;;;;;5034444;28;87090;-41
2023/05/11 11:36:53;;;;;;;;;;;12.00;68.30;;;;;;5030913;28;87423;-42
2023/05/11 11:39:19;;;;;;;;;;;11.80;68.70;;;;;;5031621;28;88847;-41
2023/05/11 11:41:45;;;;;;;;;;;11.80;69.20;;;;;;5034058;28;87104;-41
2023/05/11 11:44:20;;;;;;;;;;;11.70;69.20;;;;;;5034927;28;87201;-41
2023/05/11 11:46:46;;;;;;;;;;;11.90;68.60;;;;;;5036980;28;87249;-42
2023/05/11 11:49:12;;;;;;;;;;;12.00;68.40;;;;;;5031097;28;90366;-42
2023/05/11 11:51:40;;;;;;;;;;;12.00;68.40;;;;;;5033781;28;87941;-42
2023/05/11 11:54:05;;;;;;;;;;;12.00;68.60;;;;;;5034955;28;87491;-41
2023/05/11 11:56:31;;;;;;;;;;;12.00;68.60;;;;;;5033439;28;87412;-42
2023/05/11 11:59:02;;;;;;;;;;;12.00;68.30;;;;;;5032506;28;89651;-41
2023/05/11 12:01:33;;;;;;;;;;;12.00;68.30;;;;;;5029233;28;87825;-41
2023/05/11 12:04:09;;;;;;;;;;;12.00;68.50;;;;;;5031134;28;87936;-41
2023/05/11 12:06:36;;;;;;;;;;;12.00;68.40;;;;;;5032654;28;89653;-41
2023/05/11 12:09:03;;;;;;;;;;;12.00;68.50;;;;;;5037501;28;87143;-41
2023/05/11 12:11:29;;;;;;;;;;;12.00;68.60;;;;;;5032842;28;89608;-41
2023/05/11 12:13:55;;;;;;;;;;;12.00;68.80;;;;;;5032093;28;87099;-41
2023/05/11 12:16:21;;;;;;;;;;;12.00;68.50;;;;;;5033725;28;87490;-41
2023/05/11 12:18:53;;;;;;;;;;;12.00;68.40;;;;;;5033842;28;87597;-41
2023/05/11 12:21:22;;;;;;;;;;;12.00;68.40;;;;;;5024289;28;86678;-41
2023/05/11 12:23:54;;;;;;;;;;;12.10;68.40;;;;;;5034147;28;87068;-41
2023/05/11 12:26:20;;;;;;;;;;;12.10;68.30;;;;;;5032630;28;89271;-42
2023/05/11 12:28:49;;;;;;;;;;;12.00;68.60;;;;;;5031018;28;88073;-40
2023/05/11 12:31:15;;;;;;;;;;;11.90;69.00;;;;;;5035382;28;89835;-41
2023/05/11 12:33:44;;;;;;;;;;;12.00;68.90;;;;;;5034435;28;87108;-41
2023/05/11 12:36:12;;;;;;;;;;;12.00;68.80;;;;;;5032152;28;88951;-41
2023/05/11 12:38:42;;;;;;;;;;;12.10;68.70;;;;;;5031227;28;87956;-42
2023/05/11 12:41:07;;;;;;;;;;;12.00;68.80;;;;;;5032291;28;87113;-41
2023/05/11 12:43:33;;;;;;;;;;;12.00;68.90;;;;;;5033502;28;87126;-41
2023/05/11 12:45:58;;;;;;;;;;;12.00;68.90;;;;;;5031376;28;87348;-42
2023/05/11 12:48:24;;;;;;;;;;;12.00;68.80;;;;;;5032542;28;87261;-41
2023/05/11 12:50:49;;;;;;;;;;;12.10;68.80;;;;;;5036393;28;87527;-41
2023/05/11 12:53:16;;;;;;;;;;;12.00;69.10;;;;;;5031230;28;88135;-41
2023/05/11 12:55:42;;;;;;;;;;;11.90;69.50;;;;;;5031002;28;89771;-41
2023/05/11 12:58:11;;;;;;;;;;;11.80;70.30;;;;;;5033171;28;89423;-41
2023/05/11 13:00:36;;;;;;;;;;;11.80;70.00;;;;;;5033022;28;87367;-41
2023/05/11 13:03:02;;;;;;;;;;;11.80;70.20;;;;;;5031746;27;87253;-41
2023/05/11 13:05:28;;;;;;;;;;;11.80;70.20;;;;;;5031704;28;88235;-42
2023/05/11 13:07:58;;;;;;;;;;;11.80;70.30;;;;;;5033186;28;87208;-41
2023/05/11 13:10:25;;;;;;;;;;;11.80;70.50;;;;;;5032299;28;88759;-41
2023/05/11 13:12:51;;;;;;;;;;;11.80;70.70;;;;;;5033079;28;89333;-41
2023/05/11 13:15:17;;;;;;;;;;;11.80;70.60;;;;;;5033018;28;87388;-41
2023/05/11 13:17:43;;;;;;;;;;;11.70;70.60;;;;;;5031843;28;89142;-42
2023/05/11 13:20:18;;;;;;;;;;;11.80;70.80;;;;;;5030875;28;87226;-42
2023/05/11 13:22:44;;;;;;;;;;;11.80;70.60;;;;;;5030962;27;88755;-41
2023/05/11 13:25:09;;;;;;;;;;;11.70;70.60;;;;;;5027171;28;88144;-41
2023/05/11 13:27:35;;;;;;;;;;;11.70;70.60;;;;;;5031302;28;87635;-41
2023/05/11 13:30:05;;;;;;;;;;;11.70;70.40;;;;;;5033028;28;87479;-41
2023/05/11 13:32:30;;;;;;;;;;;11.90;70.00;;;;;;5031652;28;87791;-41
2023/05/11 13:34:56;;;;;;;;;;;12.00;69.40;;;;;;5033775;28;87017;-41
2023/05/11 13:37:21;;;;;;;;;;;12.10;69.20;;;;;;5032259;28;87899;-41
2023/05/11 13:39:47;;;;;;;;;;;12.10;69.10;;;;;;5032745;28;87188;-41
2023/05/11 13:42:12;;;;;;;;;;;12.20;69.20;;;;;;5029840;28;88012;-41
2023/05/11 13:44:38;;;;;;;;;;;12.20;68.80;;;;;;5031549;28;88243;-41
2023/05/11 13:47:04;;;;;;;;;;;12.20;68.90;;;;;;5032861;28;87176;-41
2023/05/11 13:49:29;;;;;;;;;;;12.20;68.70;;;;;;5030815;28;89219;-41
2023/05/11 13:51:55;;;;;;;;;;;12.20;68.70;;;;;;5030570;28;88038;-41
2023/05/11 13:54:20;;;;;;;;;;;12.20;68.70;;;;;;5033057;28;87287;-41
2023/05/11 13:56:46;;;;;;;;;;;12.20;68.70;;;;;;5033903;28;87600;-41
2023/05/11 13:59:12;;;;;;;;;;;12.20;68.70;;;;;;5031507;28;86455;-41
2023/05/11 14:01:37;;;;;;;;;;;12.20;68.70;;;;;;5032731;28;87002;-41
2023/05/11 14:04:03;;;;;;;;;;;12.20;69.20;;;;;;5031081;28;88030;-41
2023/05/11 14:06:31;;;;;;;;;;;12.20;68.70;;;;;;5029404;28;88136;-41
2023/05/11 14:08:57;;;;;;;;;;;12.20;68.60;;;;;;5031601;27;88456;-41
2023/05/11 14:11:22;;;;;;;;;;;12.20;68.70;;;;;;5032303;28;87187;-41
2023/05/11 14:13:48;;;;;;;;;;;12.20;68.60;;;;;;5030977;28;87179;-42
2023/05/11 14:16:14;;;;;;;;;;;12.20;68.60;;;;;;5030792;27;87555;-41